Time;durP1;ratioP1;P1;durP2;ratioP2;P2;SDS_P1;SDS_P2;PMS_P1;PMS_P2;Temp;Humidity;BMP_temperature;BMP_pressure;BME280_temperature;BME280_humidity;BME280_pressure;Samples;Min_cycle;Max_cycle;Signal;HPM_P1;HPM_P2
2021/07/25 00:00:57;;;;;;;15.50;7.40;;;;;;;;;;1484381;40;20036;-62
2021/07/25 00:01:58;;;;;;;13.93;6.68;;;;;;;;;;1484460;40;20029;-63
2021/07/25 00:02:59;;;;;;;12.35;6.47;;;;;;;;;;1484530;40;20021;-62
2021/07/25 00:04:01;;;;;;;14.15;6.63;;;;;;;;;;1484354;40;20303;-62
2021/07/25 00:05:03;;;;;;;13.43;6.47;;;;;;;;;;1484335;40;20032;-62
2021/07/25 00:06:05;;;;;;;16.30;6.60;;;;;;;;;;1484381;40;20029;-63
2021/07/25 00:07:06;;;;;;;16.17;6.85;;;;;;;;;;1484298;40;20017;-62
2021/07/25 00:08:11;;;;;;;11.88;6.35;;;;;;;;;;1484359;40;20029;-63
2021/07/25 00:09:13;;;;;;;14.88;6.53;;;;;;;;;;1484411;40;20080;-62
2021/07/25 00:10:14;;;;;;;14.75;6.72;;;;;;;;;;1484257;40;20032;-63
2021/07/25 00:11:17;;;;;;;15.02;6.28;;;;;;;;;;1484427;40;20057;-63
2021/07/25 00:12:18;;;;;;;12.55;7.00;;;;;;;;;;1484246;40;20025;-63
2021/07/25 00:13:20;;;;;;;15.13;6.20;;;;;;;;;;1484467;40;20086;-63
2021/07/25 00:14:21;;;;;;;16.38;6.40;;;;;;;;;;1484440;40;20052;-64
2021/07/25 00:15:23;;;;;;;16.50;6.60;;;;;;;;;;1484304;40;20265;-63
2021/07/25 00:16:25;;;;;;;18.25;7.50;;;;;;;;;;1484254;40;20021;-62
2021/07/25 00:17:27;;;;;;;18.15;6.72;;;;;;;;;;1484440;40;20032;-63
2021/07/25 00:18:27;;;;;;;11.25;6.47;;;;;;;;;;1484260;40;20032;-63
2021/07/25 00:19:30;;;;;;;15.57;6.45;;;;;;;;;;1484502;40;20032;-63
2021/07/25 00:20:31;;;;;;;19.48;6.85;;;;;;;;;;1484306;40;20037;-63
2021/07/25 00:21:33;;;;;;;14.23;6.28;;;;;;;;;;1484436;40;20102;-62
2021/07/25 00:22:34;;;;;;;15.25;5.75;;;;;;;;;;1484303;40;20025;-63
2021/07/25 00:23:37;;;;;;;11.98;6.20;;;;;;;;;;1484246;40;20380;-63
2021/07/25 00:24:39;;;;;;;13.45;6.22;;;;;;;;;;1484308;40;20033;-63
2021/07/25 00:25:42;;;;;;;16.70;6.78;;;;;;;;;;1484453;40;20029;-63
2021/07/25 00:26:47;;;;;;;13.73;6.28;;;;;;;;;;1484292;40;20047;-63
2021/07/25 00:27:52;;;;;;;14.45;6.60;;;;;;;;;;1484538;40;20091;-63
2021/07/25 00:28:53;;;;;;;12.45;5.70;;;;;;;;;;1484451;40;20029;-63
2021/07/25 00:29:55;;;;;;;13.98;6.22;;;;;;;;;;1484385;40;20021;-63
2021/07/25 00:30:55;;;;;;;18.13;6.40;;;;;;;;;;1484335;40;20473;-63
2021/07/25 00:32:01;;;;;;;12.98;6.00;;;;;;;;;;1484317;40;20021;-63
2021/07/25 00:33:04;;;;;;;14.45;6.72;;;;;;;;;;1484237;40;20407;-63
2021/07/25 00:34:06;;;;;;;15.00;6.50;;;;;;;;;;1484524;40;20037;-63
2021/07/25 00:35:09;;;;;;;13.27;6.72;;;;;;;;;;1484298;40;20029;-63
2021/07/25 00:36:11;;;;;;;13.57;7.13;;;;;;;;;;1484481;40;20028;-63
2021/07/25 00:37:11;;;;;;;15.60;7.10;;;;;;;;;;1484315;40;20031;-62
2021/07/25 00:38:14;;;;;;;19.27;7.03;;;;;;;;;;1484438;40;20021;-62
2021/07/25 00:39:14;;;;;;;16.73;7.22;;;;;;;;;;1484306;40;20147;-62
2021/07/25 00:40:24;;;;;;;17.90;7.10;;;;;;;;;;1484303;40;20033;-62
2021/07/25 00:41:25;;;;;;;14.90;7.68;;;;;;;;;;1484296;40;20032;-62
2021/07/25 00:42:37;;;;;;;17.88;6.82;;;;;;;;;;1484398;40;20290;-62
2021/07/25 00:43:39;;;;;;;14.70;6.45;;;;;;;;;;1484289;40;20029;-62
2021/07/25 00:44:41;;;;;;;15.75;7.65;;;;;;;;;;1484361;40;20036;-62
2021/07/25 00:45:41;;;;;;;17.10;7.30;;;;;;;;;;1484308;40;20032;-62
2021/07/25 00:46:45;;;;;;;16.17;7.50;;;;;;;;;;1484172;40;20032;-62
2021/07/25 00:47:48;;;;;;;21.45;7.85;;;;;;;;;;1484378;40;20051;-62
2021/07/25 00:48:49;;;;;;;15.18;7.55;;;;;;;;;;1484319;40;20032;-62
2021/07/25 00:49:50;;;;;;;13.82;6.70;;;;;;;;;;1484225;40;20292;-62
2021/07/25 00:50:53;;;;;;;17.50;7.07;;;;;;;;;;1484313;40;20032;-62
2021/07/25 00:51:54;;;;;;;13.25;6.68;;;;;;;;;;1484657;40;20029;-62
2021/07/25 00:52:56;;;;;;;16.83;7.65;;;;;;;;;;1484740;40;20057;-62
2021/07/25 00:53:57;;;;;;;15.90;7.00;;;;;;;;;;1484894;40;20029;-62
2021/07/25 00:55:00;;;;;;;17.05;7.57;;;;;;;;;;1485024;40;20040;-62
2021/07/25 00:56:02;;;;;;;18.35;8.20;;;;;;;;;;1484779;40;20028;-62
2021/07/25 00:57:04;;;;;;;15.93;7.15;;;;;;;;;;1484902;40;20036;-62
2021/07/25 00:58:05;;;;;;;16.02;7.25;;;;;;;;;;1484933;40;20025;-62
2021/07/25 00:59:07;;;;;;;21.13;8.23;;;;;;;;;;1484965;40;20072;-62
2021/07/25 01:00:10;;;;;;;17.20;7.68;;;;;;;;;;1484898;40;20024;-62
2021/07/25 01:01:13;;;;;;;15.00;7.97;;;;;;;;;;1484838;40;20296;-62
2021/07/25 01:02:14;;;;;;;14.57;7.90;;;;;;;;;;1484850;40;20035;-62
2021/07/25 01:03:26;;;;;;;17.42;7.85;;;;;;;;;;1485042;40;20020;-62
2021/07/25 01:04:39;;;;;;;24.20;8.38;;;;;;;;;;1484904;40;20033;-62
2021/07/25 01:05:45;;;;;;;16.13;7.82;;;;;;;;;;1484915;40;20033;-62
2021/07/25 01:07:00;;;;;;;14.65;7.47;;;;;;;;;;1484963;40;20041;-63
2021/07/25 01:08:09;;;;;;;19.67;7.60;;;;;;;;;;1484883;40;20024;-62
2021/07/25 01:09:15;;;;;;;16.27;8.10;;;;;;;;;;1485034;40;20029;-62
2021/07/25 01:10:21;;;;;;;16.27;8.05;;;;;;;;;;1484860;40;20029;-63
2021/07/25 01:11:26;;;;;;;17.15;8.40;;;;;;;;;;1484967;40;20044;-62
2021/07/25 01:12:31;;;;;;;21.45;9.00;;;;;;;;;;1485073;40;20375;-62
2021/07/25 01:13:37;;;;;;;15.38;8.88;;;;;;;;;;1484904;40;20021;-63
2021/07/25 01:14:38;;;;;;;18.15;9.32;;;;;;;;;;1485009;40;20129;-63
2021/07/25 01:15:41;;;;;;;21.60;10.88;;;;;;;;;;1484922;40;20032;-63
2021/07/25 01:16:42;;;;;;;18.10;8.50;;;;;;;;;;1484687;40;20522;-62
2021/07/25 01:17:43;;;;;;;21.95;8.18;;;;;;;;;;1484917;40;20139;-62
2021/07/25 01:18:47;;;;;;;14.38;8.48;;;;;;;;;;1484998;40;20026;-63
2021/07/25 01:19:49;;;;;;;18.42;8.20;;;;;;;;;;1484842;40;20021;-62
2021/07/25 01:20:54;;;;;;;18.85;8.20;;;;;;;;;;1484903;40;20392;-62
2021/07/25 01:21:55;;;;;;;13.57;7.70;;;;;;;;;;1484791;40;20025;-62
2021/07/25 01:22:59;;;;;;;20.42;8.15;;;;;;;;;;1484931;40;20025;-62
2021/07/25 01:24:01;;;;;;;19.92;8.05;;;;;;;;;;1484695;40;20048;-63
2021/07/25 01:25:05;;;;;;;18.85;8.18;;;;;;;;;;1484715;40;20393;-63
2021/07/25 01:26:08;;;;;;;21.17;8.90;;;;;;;;;;1484685;40;20031;-62
2021/07/25 01:27:12;;;;;;;14.13;7.88;;;;;;;;;;1484747;40;20027;-62
2021/07/25 01:28:19;;;;;;;17.20;7.45;;;;;;;;;;1484733;40;20032;-62
2021/07/25 01:29:19;;;;;;;16.15;7.60;;;;;;;;;;1484762;40;20036;-63
2021/07/25 01:30:23;;;;;;;15.82;7.75;;;;;;;;;;1484943;40;20421;-62
2021/07/25 01:31:29;;;;;;;18.45;7.78;;;;;;;;;;1484805;40;20412;-62
2021/07/25 01:32:32;;;;;;;20.73;8.02;;;;;;;;;;1484790;40;20041;-63
2021/07/25 01:33:36;;;;;;;18.02;7.30;;;;;;;;;;1484648;40;20025;-63
2021/07/25 01:34:39;;;;;;;17.63;7.63;;;;;;;;;;1484880;40;20061;-62
2021/07/25 01:35:46;;;;;;;16.17;7.57;;;;;;;;;;1484655;40;20025;-63
2021/07/25 01:36:46;;;;;;;21.90;7.68;;;;;;;;;;1484802;40;20405;-63
2021/07/25 01:37:48;;;;;;;13.48;7.05;;;;;;;;;;1484780;40;20158;-63
2021/07/25 01:38:52;;;;;;;17.30;7.90;;;;;;;;;;1484750;40;20028;-63
2021/07/25 01:39:54;;;;;;;18.20;7.38;;;;;;;;;;1484905;40;20029;-63
2021/07/25 01:41:02;;;;;;;15.07;7.78;;;;;;;;;;1484754;40;20024;-63
2021/07/25 01:42:04;;;;;;;15.27;7.35;;;;;;;;;;1484904;40;20389;-63
2021/07/25 01:43:07;;;;;;;14.93;7.60;;;;;;;;;;1484792;40;20032;-62
2021/07/25 01:44:09;;;;;;;16.92;7.90;;;;;;;;;;1484823;40;20032;-63
2021/07/25 01:45:11;;;;;;;14.30;7.55;;;;;;;;;;1484689;40;20284;-63
2021/07/25 01:46:13;;;;;;;15.02;6.80;;;;;;;;;;1484687;40;20396;-63
2021/07/25 01:47:14;;;;;;;16.65;7.45;;;;;;;;;;1484814;40;20114;-63
2021/07/25 01:48:16;;;;;;;16.70;7.80;;;;;;;;;;1484721;40;20392;-63
2021/07/25 01:49:17;;;;;;;16.42;7.63;;;;;;;;;;1484712;40;20028;-63
2021/07/25 01:50:18;;;;;;;20.00;7.90;;;;;;;;;;1484839;40;20032;-63
2021/07/25 01:51:21;;;;;;;17.20;7.68;;;;;;;;;;1484645;40;20025;-63
2021/07/25 01:52:22;;;;;;;19.65;7.85;;;;;;;;;;1484898;40;20288;-63
2021/07/25 01:53:23;;;;;;;18.70;7.88;;;;;;;;;;1484763;40;20025;-62
2021/07/25 01:54:25;;;;;;;16.98;7.72;;;;;;;;;;1484834;40;20305;-63
2021/07/25 01:55:26;;;;;;;14.60;7.70;;;;;;;;;;1484599;40;20025;-63
2021/07/25 01:56:28;;;;;;;17.02;7.55;;;;;;;;;;1484748;40;20270;-63
2021/07/25 01:57:29;;;;;;;15.90;8.18;;;;;;;;;;1484721;40;20144;-63
2021/07/25 01:58:31;;;;;;;20.65;7.63;;;;;;;;;;1484625;40;20122;-63
2021/07/25 01:59:32;;;;;;;14.82;7.82;;;;;;;;;;1484715;40;20025;-63
2021/07/25 02:01:40;;;;;;;20.70;8.75;;;;;;;;;;1492215;39;20032;-62
2021/07/25 02:02:41;;;;;;;21.42;8.75;;;;;;;;;;1492846;39;20046;-62
2021/07/25 02:03:42;;;;;;;21.02;8.85;;;;;;;;;;1493067;39;20039;-62
2021/07/25 02:04:43;;;;;;;15.77;8.05;;;;;;;;;;1493245;39;20032;-62
2021/07/25 02:05:45;;;;;;;15.20;7.90;;;;;;;;;;1492981;39;20028;-62
2021/07/25 02:06:47;;;;;;;16.73;8.15;;;;;;;;;;1493151;39;20375;-62
2021/07/25 02:07:49;;;;;;;15.70;8.45;;;;;;;;;;1493004;39;20028;-61
2021/07/25 02:08:50;;;;;;;20.33;8.63;;;;;;;;;;1493103;39;20027;-62
2021/07/25 02:09:52;;;;;;;18.25;7.90;;;;;;;;;;1493171;39;20028;-62
2021/07/25 02:10:53;;;;;;;17.77;7.90;;;;;;;;;;1493070;39;20032;-61
2021/07/25 02:11:55;;;;;;;16.13;8.25;;;;;;;;;;1493150;39;20046;-62
2021/07/25 02:12:56;;;;;;;17.10;7.63;;;;;;;;;;1492983;39;20028;-62
2021/07/25 02:13:57;;;;;;;25.10;8.63;;;;;;;;;;1493149;39;20394;-62
2021/07/25 02:14:58;;;;;;;16.52;8.00;;;;;;;;;;1493141;39;20020;-62
2021/07/25 02:16:00;;;;;;;18.42;8.50;;;;;;;;;;1493192;39;20367;-62
2021/07/25 02:17:01;;;;;;;18.65;7.57;;;;;;;;;;1493009;39;20024;-61
2021/07/25 02:18:03;;;;;;;18.35;7.80;;;;;;;;;;1493082;39;20036;-62
2021/07/25 02:19:04;;;;;;;18.98;7.72;;;;;;;;;;1493012;39;20405;-62
2021/07/25 02:20:07;;;;;;;17.42;7.82;;;;;;;;;;1493329;39;20064;-62
2021/07/25 02:21:07;;;;;;;20.02;8.15;;;;;;;;;;1492922;39;20295;-62
2021/07/25 02:22:10;;;;;;;19.05;8.18;;;;;;;;;;1493034;39;20069;-62
2021/07/25 02:23:11;;;;;;;13.63;7.72;;;;;;;;;;1493185;39;20066;-62
2021/07/25 02:24:13;;;;;;;16.23;7.90;;;;;;;;;;1493313;39;20425;-62
2021/07/25 02:25:14;;;;;;;17.08;7.72;;;;;;;;;;1492941;39;20031;-62
2021/07/25 02:26:16;;;;;;;18.60;7.57;;;;;;;;;;1493224;39;20032;-62
2021/07/25 02:27:16;;;;;;;23.60;8.38;;;;;;;;;;1492979;39;20272;-62
2021/07/25 02:28:18;;;;;;;16.55;7.63;;;;;;;;;;1493194;39;20036;-62
2021/07/25 02:29:19;;;;;;;26.33;8.60;;;;;;;;;;1493021;39;20020;-62
2021/07/25 02:30:21;;;;;;;23.85;8.63;;;;;;;;;;1493104;39;20024;-62
2021/07/25 02:31:22;;;;;;;16.48;7.53;;;;;;;;;;1492943;39;20043;-61
2021/07/25 02:32:24;;;;;;;18.40;8.38;;;;;;;;;;1493112;39;20024;-62
2021/07/25 02:33:24;;;;;;;15.88;7.63;;;;;;;;;;1493004;39;20046;-62
2021/07/25 02:34:26;;;;;;;21.00;7.82;;;;;;;;;;1493171;39;20027;-62
2021/07/25 02:35:27;;;;;;;16.95;8.40;;;;;;;;;;1492954;39;20020;-62
2021/07/25 02:36:29;;;;;;;19.58;8.63;;;;;;;;;;1493083;39;20024;-62
2021/07/25 02:37:31;;;;;;;23.65;8.18;;;;;;;;;;1493055;39;20024;-62
2021/07/25 02:38:33;;;;;;;19.65;7.97;;;;;;;;;;1493202;39;20105;-62
2021/07/25 02:39:33;;;;;;;16.77;7.43;;;;;;;;;;1492909;39;20298;-62
2021/07/25 02:40:35;;;;;;;15.38;7.75;;;;;;;;;;1493194;39;20023;-61
2021/07/25 02:41:38;;;;;;;12.23;7.30;;;;;;;;;;1492911;39;20043;-62
2021/07/25 02:42:39;;;;;;;15.07;7.53;;;;;;;;;;1493142;39;20024;-62
2021/07/25 02:43:40;;;;;;;16.75;8.02;;;;;;;;;;1492968;39;20024;-62
2021/07/25 02:44:42;;;;;;;16.17;7.68;;;;;;;;;;1493076;39;20043;-62
2021/07/25 02:45:43;;;;;;;13.93;7.22;;;;;;;;;;1492928;39;20027;-62
2021/07/25 02:46:44;;;;;;;15.65;7.63;;;;;;;;;;1493119;39;20070;-62
2021/07/25 02:47:45;;;;;;;19.85;8.15;;;;;;;;;;1493002;39;20020;-62
2021/07/25 02:48:47;;;;;;;18.73;7.70;;;;;;;;;;1493093;39;20028;-62
2021/07/25 02:49:48;;;;;;;18.00;8.13;;;;;;;;;;1492974;39;20024;-62
2021/07/25 02:50:50;;;;;;;17.08;7.68;;;;;;;;;;1493015;39;20080;-62
2021/07/25 02:51:51;;;;;;;19.90;7.68;;;;;;;;;;1493048;39;20027;-62
2021/07/25 02:52:54;;;;;;;17.80;8.27;;;;;;;;;;1488300;40;20375;-62
2021/07/25 02:53:55;;;;;;;19.65;8.65;;;;;;;;;;1488327;39;20031;-62
2021/07/25 02:54:56;;;;;;;19.05;8.43;;;;;;;;;;1493106;39;20031;-62
2021/07/25 02:55:57;;;;;;;19.65;8.55;;;;;;;;;;1492822;39;20350;-62
2021/07/25 02:56:59;;;;;;;17.33;8.65;;;;;;;;;;1493040;39;20044;-62
2021/07/25 02:58:00;;;;;;;16.13;8.48;;;;;;;;;;1492885;39;20028;-61
2021/07/25 02:59:02;;;;;;;20.85;8.75;;;;;;;;;;1493269;39;20260;-62
2021/07/25 03:00:03;;;;;;;21.88;9.20;;;;;;;;;;1492888;39;20051;-62
2021/07/25 03:01:10;;;;;;;17.45;8.70;;;;;;;;;;1492960;39;20043;-62
2021/07/25 03:02:11;;;;;;;18.95;8.82;;;;;;;;;;1492854;39;20071;-62
2021/07/25 03:03:12;;;;;;;20.55;8.55;;;;;;;;;;1493146;39;20028;-62
2021/07/25 03:04:13;;;;;;;16.73;8.75;;;;;;;;;;1493041;39;20024;-62
2021/07/25 03:05:15;;;;;;;16.67;8.95;;;;;;;;;;1493129;39;20039;-62
2021/07/25 03:06:16;;;;;;;19.20;9.07;;;;;;;;;;1492867;39;20259;-62
2021/07/25 03:07:18;;;;;;;20.27;9.45;;;;;;;;;;1493063;39;20072;-62
2021/07/25 03:08:20;;;;;;;18.15;9.73;;;;;;;;;;1492977;39;20020;-62
2021/07/25 03:09:22;;;;;;;21.63;9.50;;;;;;;;;;1493092;39;20032;-61
2021/07/25 03:10:23;;;;;;;19.33;9.82;;;;;;;;;;1492886;39;20020;-62
2021/07/25 03:11:24;;;;;;;19.77;9.55;;;;;;;;;;1492934;39;20036;-61
2021/07/25 03:12:26;;;;;;;25.23;10.77;;;;;;;;;;1492814;39;20275;-62
2021/07/25 03:13:28;;;;;;;21.85;10.15;;;;;;;;;;1492950;39;20028;-62
2021/07/25 03:14:28;;;;;;;23.00;9.93;;;;;;;;;;1492358;39;20035;-62
2021/07/25 03:15:30;;;;;;;23.00;9.25;;;;;;;;;;1493015;39;20040;-61
2021/07/25 03:16:31;;;;;;;22.05;10.63;;;;;;;;;;1492946;39;20031;-62
2021/07/25 03:17:33;;;;;;;23.25;10.05;;;;;;;;;;1493090;39;20028;-62
2021/07/25 03:18:35;;;;;;;21.17;9.82;;;;;;;;;;1492824;39;20264;-62
2021/07/25 03:19:36;;;;;;;23.38;9.75;;;;;;;;;;1492973;39;20020;-62
2021/07/25 03:20:37;;;;;;;22.13;10.20;;;;;;;;;;1492926;39;20036;-62
2021/07/25 03:21:39;;;;;;;18.52;9.70;;;;;;;;;;1493047;39;20403;-62
2021/07/25 03:22:40;;;;;;;23.88;10.32;;;;;;;;;;1492845;39;20020;-62
2021/07/25 03:23:43;;;;;;;20.73;10.75;;;;;;;;;;1493044;39;20028;-62
2021/07/25 03:24:44;;;;;;;22.98;11.15;;;;;;;;;;1492924;39;20032;-62
2021/07/25 03:25:46;;;;;;;24.40;10.10;;;;;;;;;;1492939;39;20395;-62
2021/07/25 03:26:49;;;;;;;21.30;9.30;;;;;;;;;;1492798;39;20395;-62
2021/07/25 03:27:50;;;;;;;19.48;9.45;;;;;;;;;;1492929;39;20027;-62
2021/07/25 03:28:51;;;;;;;20.00;10.00;;;;;;;;;;1492786;39;20032;-62
2021/07/25 03:29:53;;;;;;;21.02;10.40;;;;;;;;;;1492959;39;20414;-62
2021/07/25 03:30:54;;;;;;;25.58;10.25;;;;;;;;;;1492858;39;20390;-61
2021/07/25 03:31:56;;;;;;;19.92;9.00;;;;;;;;;;1492971;39;20031;-62
2021/07/25 03:32:56;;;;;;;24.92;9.65;;;;;;;;;;1492752;39;20028;-62
2021/07/25 03:34:00;;;;;;;16.02;8.48;;;;;;;;;;1493015;39;20031;-61
2021/07/25 03:35:00;;;;;;;17.15;8.70;;;;;;;;;;1492736;39;20024;-62
2021/07/25 03:36:02;;;;;;;20.27;8.43;;;;;;;;;;1493021;39;20020;-62
2021/07/25 03:37:04;;;;;;;17.23;8.25;;;;;;;;;;1492760;39;20020;-62
2021/07/25 03:38:05;;;;;;;17.77;8.70;;;;;;;;;;1492948;39;20016;-62
2021/07/25 03:39:13;;;;;;;22.45;8.30;;;;;;;;;;1493022;39;20279;-62
2021/07/25 03:40:15;;;;;;;18.98;8.65;;;;;;;;;;1492791;39;20035;-62
2021/07/25 03:41:16;;;;;;;20.88;9.35;;;;;;;;;;1492931;39;20032;-61
2021/07/25 03:42:17;;;;;;;17.63;8.27;;;;;;;;;;1492874;39;20027;-60
2021/07/25 03:43:19;;;;;;;17.15;8.85;;;;;;;;;;1492756;39;20045;-62
2021/07/25 03:44:20;;;;;;;14.93;8.27;;;;;;;;;;1492709;39;20020;-62
2021/07/25 03:45:23;;;;;;;21.05;9.25;;;;;;;;;;1492738;39;20032;-62
2021/07/25 03:46:23;;;;;;;19.90;9.05;;;;;;;;;;1492719;39;20028;-62
2021/07/25 03:47:25;;;;;;;16.13;8.48;;;;;;;;;;1493039;39;20031;-62
2021/07/25 03:48:27;;;;;;;18.23;9.65;;;;;;;;;;1492780;39;20024;-62
2021/07/25 03:49:28;;;;;;;21.20;9.27;;;;;;;;;;1493014;39;20028;-62
2021/07/25 03:50:29;;;;;;;18.30;9.70;;;;;;;;;;1492965;39;20020;-62
2021/07/25 03:51:31;;;;;;;17.45;9.23;;;;;;;;;;1492813;39;20326;-62
2021/07/25 03:52:34;;;;;;;17.02;8.93;;;;;;;;;;1492804;39;20031;-62
2021/07/25 03:53:36;;;;;;;20.38;9.38;;;;;;;;;;1492884;39;20016;-62
2021/07/25 03:54:42;;;;;;;18.50;8.40;;;;;;;;;;1492695;39;20020;-62
2021/07/25 03:55:44;;;;;;;16.58;8.63;;;;;;;;;;1492991;39;20278;-62
2021/07/25 03:56:45;;;;;;;18.27;8.93;;;;;;;;;;1492673;39;20020;-62
2021/07/25 03:57:47;;;;;;;21.92;8.80;;;;;;;;;;1488070;40;20075;-62
2021/07/25 03:58:48;;;;;;;18.45;8.88;;;;;;;;;;1488187;39;20296;-62
2021/07/25 03:59:50;;;;;;;19.15;8.88;;;;;;;;;;1492825;39;20288;-62
2021/07/25 04:00:51;;;;;;;19.13;8.98;;;;;;;;;;1492680;39;20322;-62
2021/07/25 04:01:53;;;;;;;21.42;9.20;;;;;;;;;;1492982;39;20028;-62
2021/07/25 04:02:53;;;;;;;19.98;9.07;;;;;;;;;;1492774;39;20020;-62
2021/07/25 04:03:55;;;;;;;18.15;9.13;;;;;;;;;;1492886;39;20026;-62
2021/07/25 04:04:56;;;;;;;17.75;9.15;;;;;;;;;;1492691;39;20031;-62
2021/07/25 04:05:58;;;;;;;23.45;9.43;;;;;;;;;;1492793;39;20036;-62
2021/07/25 04:06:59;;;;;;;18.08;9.07;;;;;;;;;;1492663;39;20035;-62
2021/07/25 04:08:07;;;;;;;16.92;8.95;;;;;;;;;;1492864;39;20056;-62
2021/07/25 04:09:08;;;;;;;21.92;9.25;;;;;;;;;;1492710;39;20027;-62
2021/07/25 04:10:12;;;;;;;20.67;8.98;;;;;;;;;;1492808;39;20035;-62
2021/07/25 04:11:16;;;;;;;19.50;9.27;;;;;;;;;;1492612;39;20035;-61
2021/07/25 04:12:18;;;;;;;18.50;8.88;;;;;;;;;;1492847;39;20032;-62
2021/07/25 04:13:19;;;;;;;23.85;9.30;;;;;;;;;;1492640;39;20031;-62
2021/07/25 04:14:20;;;;;;;21.90;9.30;;;;;;;;;;1492895;39;20028;-62
2021/07/25 04:15:21;;;;;;;20.73;9.40;;;;;;;;;;1492805;39;20024;-62
2021/07/25 04:16:23;;;;;;;17.92;9.50;;;;;;;;;;1492730;39;20035;-62
2021/07/25 04:17:24;;;;;;;20.52;8.68;;;;;;;;;;1492638;39;20020;-62
2021/07/25 04:18:26;;;;;;;22.17;9.50;;;;;;;;;;1492823;39;20406;-62
2021/07/25 04:19:27;;;;;;;20.13;9.43;;;;;;;;;;1492811;39;20031;-62
2021/07/25 04:20:29;;;;;;;20.17;9.48;;;;;;;;;;1492825;39;20286;-61
2021/07/25 04:21:31;;;;;;;20.83;9.48;;;;;;;;;;1492651;39;20046;-62
2021/07/25 04:22:34;;;;;;;19.52;9.27;;;;;;;;;;1492845;39;20030;-62
2021/07/25 04:23:38;;;;;;;20.88;9.07;;;;;;;;;;1492700;39;20020;-62
2021/07/25 04:24:39;;;;;;;22.17;9.00;;;;;;;;;;1492817;39;20028;-62
2021/07/25 04:25:42;;;;;;;18.80;9.32;;;;;;;;;;1492957;39;20398;-62
2021/07/25 04:26:45;;;;;;;21.00;8.77;;;;;;;;;;1493600;39;20020;-61
2021/07/25 04:27:46;;;;;;;22.55;8.80;;;;;;;;;;1493307;39;20024;-62
2021/07/25 04:28:48;;;;;;;25.88;9.48;;;;;;;;;;1493477;39;20024;-62
2021/07/25 04:29:49;;;;;;;21.52;9.43;;;;;;;;;;1493443;39;20020;-62
2021/07/25 04:30:52;;;;;;;18.15;8.15;;;;;;;;;;1493544;39;20093;-62
2021/07/25 04:31:53;;;;;;;18.35;9.00;;;;;;;;;;1493338;39;20031;-62
2021/07/25 04:32:56;;;;;;;16.45;8.85;;;;;;;;;;1493458;39;20027;-62
2021/07/25 04:33:59;;;;;;;24.33;8.98;;;;;;;;;;1493336;39;20086;-61
2021/07/25 04:35:01;;;;;;;21.05;9.38;;;;;;;;;;1488637;40;20025;-62
2021/07/25 04:36:10;;;;;;;21.77;8.80;;;;;;;;;;1488722;39;20051;-61
2021/07/25 04:37:22;;;;;;;17.77;8.73;;;;;;;;;;1488596;40;20037;-62
2021/07/25 04:38:23;;;;;;;21.65;8.48;;;;;;;;;;1489444;39;20395;-61
2021/07/25 04:39:26;;;;;;;18.65;8.88;;;;;;;;;;1493329;39;20109;-62
2021/07/25 04:40:28;;;;;;;22.48;9.30;;;;;;;;;;1493277;39;20027;-62
2021/07/25 04:41:41;;;;;;;18.67;9.27;;;;;;;;;;1493420;39;20349;-62
2021/07/25 04:42:45;;;;;;;19.88;8.60;;;;;;;;;;1493374;39;20021;-61
2021/07/25 04:43:48;;;;;;;17.50;9.00;;;;;;;;;;1493252;39;20024;-62
2021/07/25 04:44:54;;;;;;;20.83;9.02;;;;;;;;;;1493254;39;20391;-62
2021/07/25 04:46:03;;;;;;;19.75;8.57;;;;;;;;;;1493333;39;20036;-61
2021/07/25 04:47:07;;;;;;;19.45;8.82;;;;;;;;;;1493354;39;20016;-62
2021/07/25 04:48:19;;;;;;;20.52;9.30;;;;;;;;;;1493413;39;20028;-62
2021/07/25 04:49:23;;;;;;;22.83;9.00;;;;;;;;;;1493395;39;20312;-62
2021/07/25 04:50:29;;;;;;;19.27;8.40;;;;;;;;;;1493542;39;20035;-62
2021/07/25 04:51:31;;;;;;;18.63;8.95;;;;;;;;;;1493232;39;20029;-61
2021/07/25 04:52:39;;;;;;;22.27;10.00;;;;;;;;;;1493237;39;20034;-62
2021/07/25 04:53:41;;;;;;;20.40;9.27;;;;;;;;;;1493226;39;20042;-62
2021/07/25 04:54:44;;;;;;;21.52;9.25;;;;;;;;;;1493389;39;20035;-62
2021/07/25 04:55:45;;;;;;;26.10;9.48;;;;;;;;;;1493289;39;20035;-62
2021/07/25 04:56:58;;;;;;;18.15;8.98;;;;;;;;;;1493265;39;20387;-62
2021/07/25 04:58:03;;;;;;;24.48;9.73;;;;;;;;;;1493178;39;20024;-62
2021/07/25 04:59:08;;;;;;;18.98;8.55;;;;;;;;;;1493355;39;20039;-62
2021/07/25 05:00:13;;;;;;;17.33;9.18;;;;;;;;;;1493293;39;20038;-62
2021/07/25 05:01:18;;;;;;;25.15;10.20;;;;;;;;;;1493444;39;20150;-62
2021/07/25 05:02:23;;;;;;;25.92;10.32;;;;;;;;;;1493343;39;20036;-62
2021/07/25 05:03:25;;;;;;;21.90;10.02;;;;;;;;;;1493226;39;20024;-62
2021/07/25 05:04:27;;;;;;;23.67;9.93;;;;;;;;;;1488519;40;20020;-62
2021/07/25 05:05:30;;;;;;;22.67;9.88;;;;;;;;;;1488743;39;20442;-62
2021/07/25 05:06:32;;;;;;;18.45;9.57;;;;;;;;;;1493161;39;20050;-62
2021/07/25 05:07:38;;;;;;;17.23;9.02;;;;;;;;;;1493282;39;20028;-62
2021/07/25 05:08:40;;;;;;;21.95;8.57;;;;;;;;;;1493365;39;20291;-62
2021/07/25 05:09:42;;;;;;;24.02;10.10;;;;;;;;;;1493107;39;20028;-62
2021/07/25 05:10:44;;;;;;;19.65;9.13;;;;;;;;;;1493244;39;20024;-62
2021/07/25 05:11:50;;;;;;;23.75;10.07;;;;;;;;;;1493454;39;20032;-62
2021/07/25 05:12:59;;;;;;;19.75;8.63;;;;;;;;;;1493394;39;20020;-62
2021/07/25 05:14:02;;;;;;;22.38;9.35;;;;;;;;;;1493302;39;20031;-62
2021/07/25 05:15:05;;;;;;;19.45;9.68;;;;;;;;;;1493294;39;20028;-62
2021/07/25 05:16:08;;;;;;;19.95;9.23;;;;;;;;;;1493399;39;20034;-61
2021/07/25 05:17:14;;;;;;;20.83;9.35;;;;;;;;;;1493158;39;20383;-62
2021/07/25 05:18:21;;;;;;;23.15;9.35;;;;;;;;;;1493295;39;20035;-62
2021/07/25 05:19:27;;;;;;;19.23;8.80;;;;;;;;;;1493186;39;20024;-62
2021/07/25 05:20:34;;;;;;;19.17;10.20;;;;;;;;;;1488583;40;20037;-62
2021/07/25 05:21:41;;;;;;;18.85;8.95;;;;;;;;;;1489071;39;20016;-62
2021/07/25 05:22:48;;;;;;;21.20;8.88;;;;;;;;;;1493332;39;20025;-62
2021/07/25 05:23:52;;;;;;;19.63;9.30;;;;;;;;;;1493219;39;20294;-62
2021/07/25 05:24:55;;;;;;;19.25;10.00;;;;;;;;;;1493211;39;20026;-62
2021/07/25 05:25:56;;;;;;;21.33;9.70;;;;;;;;;;1493182;39;20024;-62
2021/07/25 05:27:02;;;;;;;20.10;10.30;;;;;;;;;;1493398;39;20083;-62
2021/07/25 05:28:06;;;;;;;22.73;9.98;;;;;;;;;;1493186;39;20024;-62
2021/07/25 05:29:09;;;;;;;20.70;9.30;;;;;;;;;;1493288;39;20348;-62
2021/07/25 05:30:12;;;;;;;16.30;8.52;;;;;;;;;;1493107;39;20028;-62
2021/07/25 05:31:15;;;;;;;16.90;9.27;;;;;;;;;;1493270;39;20032;-62
2021/07/25 05:32:16;;;;;;;18.35;9.40;;;;;;;;;;1488477;40;20024;-63
2021/07/25 05:33:19;;;;;;;17.63;8.85;;;;;;;;;;1488627;39;20106;-62
2021/07/25 05:34:19;;;;;;;21.52;9.50;;;;;;;;;;1493286;39;20023;-63
2021/07/25 05:35:21;;;;;;;20.52;9.95;;;;;;;;;;1493162;39;20322;-62
2021/07/25 05:36:22;;;;;;;22.80;9.90;;;;;;;;;;1493068;39;20051;-62
2021/07/25 05:37:24;;;;;;;16.42;8.77;;;;;;;;;;1492805;39;20024;-62
2021/07/25 05:38:25;;;;;;;22.10;9.60;;;;;;;;;;1493109;39;20020;-62
2021/07/25 05:39:26;;;;;;;20.15;9.18;;;;;;;;;;1488404;40;20450;-62
2021/07/25 05:40:27;;;;;;;21.85;9.13;;;;;;;;;;1488414;39;20024;-62
2021/07/25 05:41:29;;;;;;;18.17;9.00;;;;;;;;;;1493193;39;20024;-62
2021/07/25 05:42:30;;;;;;;21.98;9.50;;;;;;;;;;1493196;39;20024;-62
2021/07/25 05:43:33;;;;;;;19.15;8.98;;;;;;;;;;1493347;39;20028;-62
2021/07/25 05:44:34;;;;;;;18.58;9.40;;;;;;;;;;1493093;39;20028;-61
2021/07/25 05:45:35;;;;;;;21.70;9.55;;;;;;;;;;1493273;39;20027;-62
2021/07/25 05:46:36;;;;;;;18.45;8.93;;;;;;;;;;1493175;39;20028;-62
2021/07/25 05:47:39;;;;;;;21.45;9.98;;;;;;;;;;1493248;39;20040;-62
2021/07/25 05:48:40;;;;;;;17.80;9.27;;;;;;;;;;1493289;39;20020;-61
2021/07/25 05:49:42;;;;;;;16.85;9.25;;;;;;;;;;1493317;39;20096;-62
2021/07/25 05:50:43;;;;;;;17.45;9.43;;;;;;;;;;1493092;39;20024;-61
2021/07/25 05:51:45;;;;;;;17.90;9.27;;;;;;;;;;1493441;39;20028;-62
2021/07/25 05:52:48;;;;;;;19.35;9.90;;;;;;;;;;1493136;39;20031;-62
2021/07/25 05:53:50;;;;;;;20.13;9.75;;;;;;;;;;1493334;39;20101;-62
2021/07/25 05:54:51;;;;;;;17.92;9.40;;;;;;;;;;1493294;39;20024;-62
2021/07/25 05:55:53;;;;;;;18.92;9.90;;;;;;;;;;1493120;39;20019;-62
2021/07/25 05:56:54;;;;;;;20.58;9.52;;;;;;;;;;1493020;39;20023;-62
2021/07/25 05:57:56;;;;;;;25.05;9.73;;;;;;;;;;1493480;39;20040;-62
2021/07/25 05:58:59;;;;;;;20.95;9.18;;;;;;;;;;1493137;39;20410;-62
2021/07/25 06:00:01;;;;;;;19.10;9.50;;;;;;;;;;1493300;39;20028;-61
2021/07/25 06:01:01;;;;;;;22.83;8.80;;;;;;;;;;1493210;39;20057;-62
2021/07/25 06:02:04;;;;;;;18.98;8.98;;;;;;;;;;1493308;39;20031;-62
2021/07/25 06:03:05;;;;;;;21.25;9.88;;;;;;;;;;1493205;39;20024;-62
2021/07/25 06:04:07;;;;;;;22.50;9.88;;;;;;;;;;1493108;39;20047;-62
2021/07/25 06:05:08;;;;;;;20.58;9.90;;;;;;;;;;1493063;39;20024;-62
2021/07/25 06:06:10;;;;;;;21.17;10.02;;;;;;;;;;1493242;39;20383;-62
2021/07/25 06:07:11;;;;;;;18.13;9.10;;;;;;;;;;1493003;39;20023;-62
2021/07/25 06:08:13;;;;;;;19.80;10.10;;;;;;;;;;1493133;39;20024;-62
2021/07/25 06:09:14;;;;;;;15.82;9.10;;;;;;;;;;1492988;39;20291;-62
2021/07/25 06:10:16;;;;;;;21.75;9.43;;;;;;;;;;1493158;39;20028;-62